Česky Dansk Deutsch English Español Suomi Français Magyar Italiano Nederlands norsk Polski Português svenska Türkçe

 

Het Weer

Hyeres (Frankrijk)

03:30, 21 juli 2016 (GMT)

NWNNE
WE
SWSSE
Home            
Hyeres Le Luc St-Raphael Aix Les Milles Cannes Marseille / Marignane Salon Nice St-Auban-Sur-Durance Istres Orange Nimes / Garons Nimes / Courbessac Monte Malanotte Montpellier Capo Mele Albenga Cuneo / Levaldigi Montelimar Calvi Beziers / Vias Torino / Bric Della Croce Ajaccio

Om een weerknop op uw website of weblog te plaatsen, copieer onderstaande code en plak die in uw pagina. In het eerste vakje staat HTML-code, in het tweede vakje UBB-code.


Add to Google

Details

Wind speed:1 bf, 1 kn, 0.5 m/s, 1.2 miles/h, 1.9 km/h
Wind direction:Variable
Visibility:Greater than 10000 m, 10 km, 32800 ft, 6.2 miles
Clouds:CAVOC
Temperature:19°C, 66°F
Dew-point:16°C, 61°F
Atmospheric pressure:1015 hPa, 761.3 mmHg, 29.97 inHg, 1.002 atm
Relative humidity:82.7 %
METAR:LFTH 210330Z AUTO VRB01KT CAVOK 19/16 Q1015 NOSIG

Snelkoppelingen

Actuele weersinformatie van de hele wereld. Voeg locaties toe met het plus (+) symbool. Deze snelkoppelingen kunnen worden toegevoegd aan Google.

Lid van de Technetium groep

website free tracking
StatCounter NetStat W3C Validator

15-08-2022 03:55:11
astro.technetium.be money.technetium.be phote.technetium.be tafeltennistafel.technetium.be www.ligfiets.net